sensor_id;sensor_type;location;lat;lon;timestamp;temperature;humidity
2639;DHT22;1329;51.384;7.122;2022-09-09T00:02:28;18.20;99.90
2639;DHT22;1329;51.384;7.122;2022-09-09T00:04:59;18.10;99.90
2639;DHT22;1329;51.384;7.122;2022-09-09T00:07:40;18.10;99.90
2639;DHT22;1329;51.384;7.122;2022-09-09T00:10:17;18.10;99.90
2639;DHT22;1329;51.384;7.122;2022-09-09T00:12:57;18.10;99.90
2639;DHT22;1329;51.384;7.122;2022-09-09T00:15:30;18.10;99.90
2639;DHT22;1329;51.384;7.122;2022-09-09T00:18:11;18.10;99.90
2639;DHT22;1329;51.384;7.122;2022-09-09T00:20:47;18.10;99.90
2639;DHT22;1329;51.384;7.122;2022-09-09T00:23:23;18.10;99.90
2639;DHT22;1329;51.384;7.122;2022-09-09T00:26:02;18.10;99.90
2639;DHT22;1329;51.384;7.122;2022-09-09T00:28:38;18.10;99.90
2639;DHT22;1329;51.384;7.122;2022-09-09T00:31:13;18.00;99.90
2639;DHT22;1329;51.384;7.122;2022-09-09T00:33:43;18.00;99.90
2639;DHT22;1329;51.384;7.122;2022-09-09T00:36:15;18.00;99.90
2639;DHT22;1329;51.384;7.122;2022-09-09T00:38:48;17.90;99.90
2639;DHT22;1329;51.384;7.122;2022-09-09T00:41:21;18.00;99.90
2639;DHT22;1329;51.384;7.122;2022-09-09T00:43:57;18.00;99.90
2639;DHT22;1329;51.384;7.122;2022-09-09T00:46:50;18.00;99.90
2639;DHT22;1329;51.384;7.122;2022-09-09T00:49:38;18.00;99.90
2639;DHT22;1329;51.384;7.122;2022-09-09T00:52:21;18.00;99.90
2639;DHT22;1329;51.384;7.122;2022-09-09T00:54:58;17.90;99.90
2639;DHT22;1329;51.384;7.122;2022-09-09T00:57:34;17.90;99.90
2639;DHT22;1329;51.384;7.122;2022-09-09T01:00:19;17.90;99.90
2639;DHT22;1329;51.384;7.122;2022-09-09T01:03:07;17.90;99.90
2639;DHT22;1329;51.384;7.122;2022-09-09T01:05:46;17.90;99.90
2639;DHT22;1329;51.384;7.122;2022-09-09T01:08:33;17.80;99.90
2639;DHT22;1329;51.384;7.122;2022-09-09T01:11:16;17.80;99.90
2639;DHT22;1329;51.384;7.122;2022-09-09T01:13:58;17.80;99.90
2639;DHT22;1329;51.384;7.122;2022-09-09T01:16:30;17.80;99.90
2639;DHT22;1329;51.384;7.122;2022-09-09T01:19:00;17.80;99.90
2639;DHT22;1329;51.384;7.122;2022-09-09T01:21:39;17.70;99.90
2639;DHT22;1329;51.384;7.122;2022-09-09T01:24:23;17.70;99.90
2639;DHT22;1329;51.384;7.122;2022-09-09T01:26:58;17.70;99.90
2639;DHT22;1329;51.384;7.122;2022-09-09T01:29:27;17.70;99.90
2639;DHT22;1329;51.384;7.122;2022-09-09T01:31:56;17.70;99.90
2639;DHT22;1329;51.384;7.122;2022-09-09T01:34:28;17.70;99.90
2639;DHT22;1329;51.384;7.122;2022-09-09T01:37:01;17.70;99.90
2639;DHT22;1329;51.384;7.122;2022-09-09T01:39:30;17.70;99.90
2639;DHT22;1329;51.384;7.122;2022-09-09T01:42:00;17.70;99.90
2639;DHT22;1329;51.384;7.122;2022-09-09T01:44:30;17.70;99.90
2639;DHT22;1329;51.384;7.122;2022-09-09T01:46:57;17.70;99.90
2639;DHT22;1329;51.384;7.122;2022-09-09T01:49:25;17.70;99.90
2639;DHT22;1329;51.384;7.122;2022-09-09T01:51:54;17.80;99.90
2639;DHT22;1329;51.384;7.122;2022-09-09T01:54:25;17.80;99.90
2639;DHT22;1329;51.384;7.122;2022-09-09T01:57:10;17.90;99.90
2639;DHT22;1329;51.384;7.122;2022-09-09T01:59:50;17.90;99.90
2639;DHT22;1329;51.384;7.122;2022-09-09T02:02:32;17.90;99.90
2639;DHT22;1329;51.384;7.122;2022-09-09T02:05:12;17.90;99.90
2639;DHT22;1329;51.384;7.122;2022-09-09T02:07:47;17.90;99.90
2639;DHT22;1329;51.384;7.122;2022-09-09T02:10:20;17.90;99.90
2639;DHT22;1329;51.384;7.122;2022-09-09T02:12:54;17.90;99.90
2639;DHT22;1329;51.384;7.122;2022-09-09T02:15:28;17.90;99.90
2639;DHT22;1329;51.384;7.122;2022-09-09T02:17:58;18.00;99.90
2639;DHT22;1329;51.384;7.122;2022-09-09T02:20:36;17.90;99.90
2639;DHT22;1329;51.384;7.122;2022-09-09T02:23:04;17.90;99.90
2639;DHT22;1329;51.384;7.122;2022-09-09T02:25:34;17.90;99.90
2639;DHT22;1329;51.384;7.122;2022-09-09T02:28:06;17.90;99.90
2639;DHT22;1329;51.384;7.122;2022-09-09T02:30:35;17.90;99.90
2639;DHT22;1329;51.384;7.122;2022-09-09T02:33:04;17.90;99.90
2639;DHT22;1329;51.384;7.122;2022-09-09T02:35:34;17.90;99.90
2639;DHT22;1329;51.384;7.122;2022-09-09T02:38:09;17.90;99.90
2639;DHT22;1329;51.384;7.122;2022-09-09T02:40:39;17.80;99.90
2639;DHT22;1329;51.384;7.122;2022-09-09T02:43:14;17.90;99.90
2639;DHT22;1329;51.384;7.122;2022-09-09T02:45:49;17.90;99.90
2639;DHT22;1329;51.384;7.122;2022-09-09T02:48:29;17.90;99.90
2639;DHT22;1329;51.384;7.122;2022-09-09T02:51:05;17.90;99.90
2639;DHT22;1329;51.384;7.122;2022-09-09T02:53:46;17.90;99.90
2639;DHT22;1329;51.384;7.122;2022-09-09T02:56:17;17.90;99.90
2639;DHT22;1329;51.384;7.122;2022-09-09T02:58:48;17.90;99.90
2639;DHT22;1329;51.384;7.122;2022-09-09T03:01:20;17.90;99.90
2639;DHT22;1329;51.384;7.122;2022-09-09T03:03:48;17.90;99.90
2639;DHT22;1329;51.384;7.122;2022-09-09T03:06:15;17.90;99.90
2639;DHT22;1329;51.384;7.122;2022-09-09T03:08:43;17.90;99.90
2639;DHT22;1329;51.384;7.122;2022-09-09T03:11:10;17.90;99.90
2639;DHT22;1329;51.384;7.122;2022-09-09T03:13:37;17.90;99.90
2639;DHT22;1329;51.384;7.122;2022-09-09T03:16:10;17.90;99.90
2639;DHT22;1329;51.384;7.122;2022-09-09T03:18:37;17.90;99.90
2639;DHT22;1329;51.384;7.122;2022-09-09T03:21:07;17.90;99.90
2639;DHT22;1329;51.384;7.122;2022-09-09T03:23:37;17.90;99.90
2639;DHT22;1329;51.384;7.122;2022-09-09T03:26:05;17.90;99.90
2639;DHT22;1329;51.384;7.122;2022-09-09T03:28:32;17.90;99.90
2639;DHT22;1329;51.384;7.122;2022-09-09T03:31:01;17.90;99.90
2639;DHT22;1329;51.384;7.122;2022-09-09T03:33:31;17.90;99.90
2639;DHT22;1329;51.384;7.122;2022-09-09T03:36:00;17.90;99.90
2639;DHT22;1329;51.384;7.122;2022-09-09T03:38:27;17.90;99.90
2639;DHT22;1329;51.384;7.122;2022-09-09T03:40:56;17.80;99.90
2639;DHT22;1329;51.384;7.122;2022-09-09T03:43:27;17.90;99.90
2639;DHT22;1329;51.384;7.122;2022-09-09T03:45:55;17.90;99.90
2639;DHT22;1329;51.384;7.122;2022-09-09T03:48:22;17.80;99.90
2639;DHT22;1329;51.384;7.122;2022-09-09T03:50:53;17.80;99.90
2639;DHT22;1329;51.384;7.122;2022-09-09T03:53:22;17.80;99.90
2639;DHT22;1329;51.384;7.122;2022-09-09T03:55:52;17.90;99.90
2639;DHT22;1329;51.384;7.122;2022-09-09T03:58:22;17.80;99.90
2639;DHT22;1329;51.384;7.122;2022-09-09T04:00:56;17.90;99.90
2639;DHT22;1329;51.384;7.122;2022-09-09T04:03:24;17.80;99.90
2639;DHT22;1329;51.384;7.122;2022-09-09T04:05:59;17.80;99.90
2639;DHT22;1329;51.384;7.122;2022-09-09T04:08:27;17.90;99.90
2639;DHT22;1329;51.384;7.122;2022-09-09T04:10:57;17.90;99.90
2639;DHT22;1329;51.384;7.122;2022-09-09T04:13:25;17.90;99.90
2639;DHT22;1329;51.384;7.122;2022-09-09T04:15:55;17.90;99.90
2639;DHT22;1329;51.384;7.122;2022-09-09T04:18:27;17.90;99.90
2639;DHT22;1329;51.384;7.122;2022-09-09T04:21:02;17.90;99.90
2639;DHT22;1329;51.384;7.122;2022-09-09T04:23:31;17.90;99.90
2639;DHT22;1329;51.384;7.122;2022-09-09T04:26:00;17.90;99.90
2639;DHT22;1329;51.384;7.122;2022-09-09T04:28:31;17.90;99.90
2639;DHT22;1329;51.384;7.122;2022-09-09T04:31:05;17.90;99.90
2639;DHT22;1329;51.384;7.122;2022-09-09T04:33:36;17.90;99.90
2639;DHT22;1329;51.384;7.122;2022-09-09T04:36:06;17.90;99.90
2639;DHT22;1329;51.384;7.122;2022-09-09T04:38:37;17.80;99.90
2639;DHT22;1329;51.384;7.122;2022-09-09T04:41:08;17.80;99.90
2639;DHT22;1329;51.384;7.122;2022-09-09T04:43:39;17.70;99.90
2639;DHT22;1329;51.384;7.122;2022-09-09T04:46:06;17.80;99.90
2639;DHT22;1329;51.384;7.122;2022-09-09T04:48:36;17.70;99.90
2639;DHT22;1329;51.384;7.122;2022-09-09T04:51:08;17.70;99.90
2639;DHT22;1329;51.384;7.122;2022-09-09T04:53:40;17.70;99.90
2639;DHT22;1329;51.384;7.122;2022-09-09T04:56:09;17.70;99.90
2639;DHT22;1329;51.384;7.122;2022-09-09T04:58:39;17.70;99.90
2639;DHT22;1329;51.384;7.122;2022-09-09T05:01:24;17.70;99.90
2639;DHT22;1329;51.384;7.122;2022-09-09T05:03:52;17.70;99.90
2639;DHT22;1329;51.384;7.122;2022-09-09T05:06:22;17.70;99.90
2639;DHT22;1329;51.384;7.122;2022-09-09T05:08:50;17.70;99.90
2639;DHT22;1329;51.384;7.122;2022-09-09T05:11:20;17.70;99.90
2639;DHT22;1329;51.384;7.122;2022-09-09T05:13:52;17.70;99.90
2639;DHT22;1329;51.384;7.122;2022-09-09T05:16:21;17.70;99.90
2639;DHT22;1329;51.384;7.122;2022-09-09T05:18:52;17.70;99.90
2639;DHT22;1329;51.384;7.122;2022-09-09T05:21:24;17.80;99.90
2639;DHT22;1329;51.384;7.122;2022-09-09T05:23:56;17.80;99.90
2639;DHT22;1329;51.384;7.122;2022-09-09T05:26:27;17.80;99.90
2639;DHT22;1329;51.384;7.122;2022-09-09T05:28:59;17.80;99.90
2639;DHT22;1329;51.384;7.122;2022-09-09T05:31:29;17.80;99.90
2639;DHT22;1329;51.384;7.122;2022-09-09T05:34:03;17.80;99.90
2639;DHT22;1329;51.384;7.122;2022-09-09T05:36:32;17.90;99.90
2639;DHT22;1329;51.384;7.122;2022-09-09T05:39:00;17.90;99.90
2639;DHT22;1329;51.384;7.122;2022-09-09T05:41:28;17.90;99.90
2639;DHT22;1329;51.384;7.122;2022-09-09T05:43:58;17.90;99.90
2639;DHT22;1329;51.384;7.122;2022-09-09T05:46:26;17.90;99.90
2639;DHT22;1329;51.384;7.122;2022-09-09T05:48:55;17.90;99.90
2639;DHT22;1329;51.384;7.122;2022-09-09T05:51:27;18.00;99.90
2639;DHT22;1329;51.384;7.122;2022-09-09T05:54:02;17.90;99.90
2639;DHT22;1329;51.384;7.122;2022-09-09T05:56:33;18.00;99.90
2639;DHT22;1329;51.384;7.122;2022-09-09T05:59:04;18.00;99.90
2639;DHT22;1329;51.384;7.122;2022-09-09T06:01:37;18.00;99.90
2639;DHT22;1329;51.384;7.122;2022-09-09T06:04:07;18.10;99.90
2639;DHT22;1329;51.384;7.122;2022-09-09T06:06:39;18.10;99.90
2639;DHT22;1329;51.384;7.122;2022-09-09T06:09:16;18.10;99.90
2639;DHT22;1329;51.384;7.122;2022-09-09T06:11:44;18.10;99.90
2639;DHT22;1329;51.384;7.122;2022-09-09T06:14:14;18.10;99.90
2639;DHT22;1329;51.384;7.122;2022-09-09T06:16:43;18.20;99.90
2639;DHT22;1329;51.384;7.122;2022-09-09T06:19:11;18.20;99.90
2639;DHT22;1329;51.384;7.122;2022-09-09T06:21:40;18.20;99.90
2639;DHT22;1329;51.384;7.122;2022-09-09T06:24:08;18.30;99.90
2639;DHT22;1329;51.384;7.122;2022-09-09T06:26:38;18.30;99.90
2639;DHT22;1329;51.384;7.122;2022-09-09T06:29:07;18.40;99.90
2639;DHT22;1329;51.384;7.122;2022-09-09T06:31:36;18.40;99.90
2639;DHT22;1329;51.384;7.122;2022-09-09T06:34:05;18.40;99.90
2639;DHT22;1329;51.384;7.122;2022-09-09T06:36:35;18.40;99.90
2639;DHT22;1329;51.384;7.122;2022-09-09T06:39:04;18.50;99.90
2639;DHT22;1329;51.384;7.122;2022-09-09T06:41:33;18.50;99.90
2639;DHT22;1329;51.384;7.122;2022-09-09T06:44:02;18.50;99.90
2639;DHT22;1329;51.384;7.122;2022-09-09T06:46:31;18.60;99.90
2639;DHT22;1329;51.384;7.122;2022-09-09T06:49:01;18.60;99.90
2639;DHT22;1329;51.384;7.122;2022-09-09T06:51:30;18.60;99.90
2639;DHT22;1329;51.384;7.122;2022-09-09T06:54:02;18.70;99.90
2639;DHT22;1329;51.384;7.122;2022-09-09T06:56:31;18.70;99.90
2639;DHT22;1329;51.384;7.122;2022-09-09T06:59:03;18.70;99.90
2639;DHT22;1329;51.384;7.122;2022-09-09T07:01:32;18.80;99.90
2639;DHT22;1329;51.384;7.122;2022-09-09T07:04:01;18.80;99.90
2639;DHT22;1329;51.384;7.122;2022-09-09T07:06:31;18.80;99.90
2639;DHT22;1329;51.384;7.122;2022-09-09T07:09:02;18.80;99.90
2639;DHT22;1329;51.384;7.122;2022-09-09T07:11:33;18.90;99.90
2639;DHT22;1329;51.384;7.122;2022-09-09T07:14:04;18.90;99.90
2639;DHT22;1329;51.384;7.122;2022-09-09T07:16:32;18.90;99.90
2639;DHT22;1329;51.384;7.122;2022-09-09T07:19:04;19.00;99.90
2639;DHT22;1329;51.384;7.122;2022-09-09T07:21:33;18.90;99.90
2639;DHT22;1329;51.384;7.122;2022-09-09T07:24:03;18.90;99.90
2639;DHT22;1329;51.384;7.122;2022-09-09T07:26:35;19.00;99.90
2639;DHT22;1329;51.384;7.122;2022-09-09T07:29:11;19.00;99.90
2639;DHT22;1329;51.384;7.122;2022-09-09T07:31:40;19.00;99.90
2639;DHT22;1329;51.384;7.122;2022-09-09T07:34:08;18.90;99.90
2639;DHT22;1329;51.384;7.122;2022-09-09T07:36:37;18.90;99.90
2639;DHT22;1329;51.384;7.122;2022-09-09T07:39:07;18.90;99.90
2639;DHT22;1329;51.384;7.122;2022-09-09T07:41:37;18.90;99.90
2639;DHT22;1329;51.384;7.122;2022-09-09T07:44:09;18.90;99.90
2639;DHT22;1329;51.384;7.122;2022-09-09T07:46:39;18.90;99.90
2639;DHT22;1329;51.384;7.122;2022-09-09T07:49:09;18.90;99.90
2639;DHT22;1329;51.384;7.122;2022-09-09T07:51:40;18.80;99.90
2639;DHT22;1329;51.384;7.122;2022-09-09T07:54:10;18.90;99.90
2639;DHT22;1329;51.384;7.122;2022-09-09T07:56:39;18.80;99.90
2639;DHT22;1329;51.384;7.122;2022-09-09T07:59:11;18.90;99.90
2639;DHT22;1329;51.384;7.122;2022-09-09T08:01:40;18.90;99.90
2639;DHT22;1329;51.384;7.122;2022-09-09T08:04:12;18.90;99.90
2639;DHT22;1329;51.384;7.122;2022-09-09T08:06:44;18.90;99.90
2639;DHT22;1329;51.384;7.122;2022-09-09T08:09:14;18.90;99.90
2639;DHT22;1329;51.384;7.122;2022-09-09T08:11:42;18.90;99.90
2639;DHT22;1329;51.384;7.122;2022-09-09T08:14:11;19.00;99.90
2639;DHT22;1329;51.384;7.122;2022-09-09T08:16:41;19.00;99.90
2639;DHT22;1329;51.384;7.122;2022-09-09T08:19:09;19.00;99.90
2639;DHT22;1329;51.384;7.122;2022-09-09T08:21:39;19.10;99.90
2639;DHT22;1329;51.384;7.122;2022-09-09T08:24:08;19.10;99.90
2639;DHT22;1329;51.384;7.122;2022-09-09T08:26:38;19.20;99.90
2639;DHT22;1329;51.384;7.122;2022-09-09T08:29:09;19.30;99.90
2639;DHT22;1329;51.384;7.122;2022-09-09T08:31:41;19.40;99.90
2639;DHT22;1329;51.384;7.122;2022-09-09T08:34:10;19.40;99.90
2639;DHT22;1329;51.384;7.122;2022-09-09T08:36:39;19.50;99.90
2639;DHT22;1329;51.384;7.122;2022-09-09T08:39:10;19.50;99.90
2639;DHT22;1329;51.384;7.122;2022-09-09T08:44:49;19.60;99.90
2639;DHT22;1329;51.384;7.122;2022-09-09T08:47:31;19.60;99.90
2639;DHT22;1329;51.384;7.122;2022-09-09T08:50:11;19.70;99.90
2639;DHT22;1329;51.384;7.122;2022-09-09T08:52:49;19.70;99.90
2639;DHT22;1329;51.384;7.122;2022-09-09T08:55:26;19.80;99.90
2639;DHT22;1329;51.384;7.122;2022-09-09T08:57:58;19.90;99.90
2639;DHT22;1329;51.384;7.122;2022-09-09T09:00:43;19.90;99.90
2639;DHT22;1329;51.384;7.122;2022-09-09T09:03:24;20.00;99.90
2639;DHT22;1329;51.384;7.122;2022-09-09T09:06:04;20.00;99.90
2639;DHT22;1329;51.384;7.122;2022-09-09T09:08:40;20.00;99.90
2639;DHT22;1329;51.384;7.122;2022-09-09T09:11:10;20.00;99.90
2639;DHT22;1329;51.384;7.122;2022-09-09T09:13:43;20.00;99.90
2639;DHT22;1329;51.384;7.122;2022-09-09T09:16:27;20.00;99.90
2639;DHT22;1329;51.384;7.122;2022-09-09T09:18:58;20.00;99.90
2639;DHT22;1329;51.384;7.122;2022-09-09T09:21:32;20.00;99.90
2639;DHT22;1329;51.384;7.122;2022-09-09T09:24:05;20.10;99.90
2639;DHT22;1329;51.384;7.122;2022-09-09T09:26:36;20.10;99.90
2639;DHT22;1329;51.384;7.122;2022-09-09T09:29:10;20.20;99.90
2639;DHT22;1329;51.384;7.122;2022-09-09T09:31:43;20.30;99.90
2639;DHT22;1329;51.384;7.122;2022-09-09T09:34:14;20.40;99.90
2639;DHT22;1329;51.384;7.122;2022-09-09T09:36:45;20.50;99.90
2639;DHT22;1329;51.384;7.122;2022-09-09T09:39:23;20.60;99.90
2639;DHT22;1329;51.384;7.122;2022-09-09T09:41:52;20.70;99.90
2639;DHT22;1329;51.384;7.122;2022-09-09T09:44:25;20.80;99.90
2639;DHT22;1329;51.384;7.122;2022-09-09T09:47:06;20.90;99.90
2639;DHT22;1329;51.384;7.122;2022-09-09T09:49:34;20.90;99.90
2639;DHT22;1329;51.384;7.122;2022-09-09T09:52:03;20.90;99.90
2639;DHT22;1329;51.384;7.122;2022-09-09T09:54:33;21.00;99.90
2639;DHT22;1329;51.384;7.122;2022-09-09T09:57:09;20.90;99.90
2639;DHT22;1329;51.384;7.122;2022-09-09T09:59:38;21.00;99.90
2639;DHT22;1329;51.384;7.122;2022-09-09T10:02:19;21.00;99.90
2639;DHT22;1329;51.384;7.122;2022-09-09T10:05:00;21.10;99.90
2639;DHT22;1329;51.384;7.122;2022-09-09T10:07:29;21.10;99.90
2639;DHT22;1329;51.384;7.122;2022-09-09T10:09:59;21.00;99.90
2639;DHT22;1329;51.384;7.122;2022-09-09T10:12:39;21.00;99.90
2639;DHT22;1329;51.384;7.122;2022-09-09T10:15:29;21.00;99.90
2639;DHT22;1329;51.384;7.122;2022-09-09T10:18:12;20.90;99.90
2639;DHT22;1329;51.384;7.122;2022-09-09T10:20:57;21.00;99.90
2639;DHT22;1329;51.384;7.122;2022-09-09T10:23:46;20.90;99.90
2639;DHT22;1329;51.384;7.122;2022-09-09T10:26:35;21.00;99.90
2639;DHT22;1329;51.384;7.122;2022-09-09T10:29:28;21.00;99.90
2639;DHT22;1329;51.384;7.122;2022-09-09T10:32:15;21.10;99.90
2639;DHT22;1329;51.384;7.122;2022-09-09T10:34:56;21.20;99.90
2639;DHT22;1329;51.384;7.122;2022-09-09T10:37:38;21.20;99.90
2639;DHT22;1329;51.384;7.122;2022-09-09T10:40:23;21.20;99.90
2639;DHT22;1329;51.384;7.122;2022-09-09T10:43:03;21.30;99.90
2639;DHT22;1329;51.384;7.122;2022-09-09T10:45:41;21.40;99.90
2639;DHT22;1329;51.384;7.122;2022-09-09T10:48:26;21.50;99.90
2639;DHT22;1329;51.384;7.122;2022-09-09T10:51:18;21.60;99.90
2639;DHT22;1329;51.384;7.122;2022-09-09T10:54:14;21.70;99.90
2639;DHT22;1329;51.384;7.122;2022-09-09T10:56:52;21.80;99.90
2639;DHT22;1329;51.384;7.122;2022-09-09T10:59:25;21.80;99.90
2639;DHT22;1329;51.384;7.122;2022-09-09T11:01:57;21.90;99.90
2639;DHT22;1329;51.384;7.122;2022-09-09T11:04:31;21.90;99.90
2639;DHT22;1329;51.384;7.122;2022-09-09T11:07:08;22.00;99.90
2639;DHT22;1329;51.384;7.122;2022-09-09T11:09:39;22.10;99.90
2639;DHT22;1329;51.384;7.122;2022-09-09T11:12:15;22.10;99.90
2639;DHT22;1329;51.384;7.122;2022-09-09T11:14:49;22.20;99.90
2639;DHT22;1329;51.384;7.122;2022-09-09T11:17:22;22.20;99.90
2639;DHT22;1329;51.384;7.122;2022-09-09T11:19:54;22.30;99.90
2639;DHT22;1329;51.384;7.122;2022-09-09T11:22:27;22.20;99.90
2639;DHT22;1329;51.384;7.122;2022-09-09T11:24:59;22.30;99.90
2639;DHT22;1329;51.384;7.122;2022-09-09T11:27:36;22.30;99.90
2639;DHT22;1329;51.384;7.122;2022-09-09T11:30:20;22.30;99.90
2639;DHT22;1329;51.384;7.122;2022-09-09T11:36:23;22.40;99.90
2639;DHT22;1329;51.384;7.122;2022-09-09T11:39:13;22.30;99.90
2639;DHT22;1329;51.384;7.122;2022-09-09T11:42:06;22.30;99.90
2639;DHT22;1329;51.384;7.122;2022-09-09T11:44:40;22.30;99.90
2639;DHT22;1329;51.384;7.122;2022-09-09T11:47:19;22.20;99.90
2639;DHT22;1329;51.384;7.122;2022-09-09T11:49:50;22.20;99.90
2639;DHT22;1329;51.384;7.122;2022-09-09T11:52:22;22.10;99.90
2639;DHT22;1329;51.384;7.122;2022-09-09T11:54:56;22.10;99.90
2639;DHT22;1329;51.384;7.122;2022-09-09T11:57:29;22.00;99.90
2639;DHT22;1329;51.384;7.122;2022-09-09T11:59:59;22.00;99.90
2639;DHT22;1329;51.384;7.122;2022-09-09T12:02:28;22.00;99.90
2639;DHT22;1329;51.384;7.122;2022-09-09T12:05:02;21.90;99.90
2639;DHT22;1329;51.384;7.122;2022-09-09T12:07:37;21.90;99.90
2639;DHT22;1329;51.384;7.122;2022-09-09T12:10:28;21.80;99.90
2639;DHT22;1329;51.384;7.122;2022-09-09T12:13:08;21.80;99.90
2639;DHT22;1329;51.384;7.122;2022-09-09T12:15:47;21.70;99.90
2639;DHT22;1329;51.384;7.122;2022-09-09T12:18:22;21.70;99.90
2639;DHT22;1329;51.384;7.122;2022-09-09T12:20:57;21.70;99.90
2639;DHT22;1329;51.384;7.122;2022-09-09T12:23:35;21.80;99.90
2639;DHT22;1329;51.384;7.122;2022-09-09T12:26:21;21.80;99.90
2639;DHT22;1329;51.384;7.122;2022-09-09T12:29:13;21.80;99.90
2639;DHT22;1329;51.384;7.122;2022-09-09T12:31:53;21.90;99.90
2639;DHT22;1329;51.384;7.122;2022-09-09T12:34:33;21.90;99.90
2639;DHT22;1329;51.384;7.122;2022-09-09T12:37:16;21.90;99.90
2639;DHT22;1329;51.384;7.122;2022-09-09T12:39:53;21.90;99.90
2639;DHT22;1329;51.384;7.122;2022-09-09T12:42:24;21.90;99.90
2639;DHT22;1329;51.384;7.122;2022-09-09T12:44:55;21.80;99.90
2639;DHT22;1329;51.384;7.122;2022-09-09T12:47:30;21.70;99.90
2639;DHT22;1329;51.384;7.122;2022-09-09T12:50:04;21.70;99.90
2639;DHT22;1329;51.384;7.122;2022-09-09T12:52:35;21.60;99.90
2639;DHT22;1329;51.384;7.122;2022-09-09T12:55:05;21.60;99.90
2639;DHT22;1329;51.384;7.122;2022-09-09T12:57:39;21.60;99.90
2639;DHT22;1329;51.384;7.122;2022-09-09T13:00:15;21.60;99.90
2639;DHT22;1329;51.384;7.122;2022-09-09T13:02:50;21.70;99.90
2639;DHT22;1329;51.384;7.122;2022-09-09T13:05:21;21.70;99.90
2639;DHT22;1329;51.384;7.122;2022-09-09T13:07:50;21.70;99.90
2639;DHT22;1329;51.384;7.122;2022-09-09T13:10:24;21.70;99.90
2639;DHT22;1329;51.384;7.122;2022-09-09T13:12:56;21.70;99.90
2639;DHT22;1329;51.384;7.122;2022-09-09T13:15:26;21.70;99.90
2639;DHT22;1329;51.384;7.122;2022-09-09T13:17:57;21.70;99.90
2639;DHT22;1329;51.384;7.122;2022-09-09T13:20:28;21.70;99.90
2639;DHT22;1329;51.384;7.122;2022-09-09T13:22:56;21.70;99.90
2639;DHT22;1329;51.384;7.122;2022-09-09T13:25:28;21.80;99.90
2639;DHT22;1329;51.384;7.122;2022-09-09T13:27:59;21.70;99.90
2639;DHT22;1329;51.384;7.122;2022-09-09T13:30:29;21.70;99.90
2639;DHT22;1329;51.384;7.122;2022-09-09T13:33:05;21.70;99.90
2639;DHT22;1329;51.384;7.122;2022-09-09T13:35:54;21.70;99.90
2639;DHT22;1329;51.384;7.122;2022-09-09T13:38:23;21.60;99.90
2639;DHT22;1329;51.384;7.122;2022-09-09T13:40:54;21.40;99.90
2639;DHT22;1329;51.384;7.122;2022-09-09T13:43:26;21.30;99.90
2639;DHT22;1329;51.384;7.122;2022-09-09T13:45:55;21.00;99.90
2639;DHT22;1329;51.384;7.122;2022-09-09T13:48:25;20.80;99.90
2639;DHT22;1329;51.384;7.122;2022-09-09T13:51:01;20.60;99.90
2639;DHT22;1329;51.384;7.122;2022-09-09T13:53:31;20.60;99.90
2639;DHT22;1329;51.384;7.122;2022-09-09T13:55:59;20.50;99.90
2639;DHT22;1329;51.384;7.122;2022-09-09T13:58:30;20.50;99.90
2639;DHT22;1329;51.384;7.122;2022-09-09T14:01:00;20.60;99.90
2639;DHT22;1329;51.384;7.122;2022-09-09T14:03:28;20.60;99.90
2639;DHT22;1329;51.384;7.122;2022-09-09T14:06:12;20.70;99.90
2639;DHT22;1329;51.384;7.122;2022-09-09T14:08:51;20.70;99.90
2639;DHT22;1329;51.384;7.122;2022-09-09T14:11:27;20.90;99.90
2639;DHT22;1329;51.384;7.122;2022-09-09T14:14:09;20.90;99.90
2639;DHT22;1329;51.384;7.122;2022-09-09T14:16:38;21.00;99.90
2639;DHT22;1329;51.384;7.122;2022-09-09T14:19:13;21.10;99.90
2639;DHT22;1329;51.384;7.122;2022-09-09T14:21:46;21.10;99.90
2639;DHT22;1329;51.384;7.122;2022-09-09T14:24:19;21.20;99.90
2639;DHT22;1329;51.384;7.122;2022-09-09T14:26:54;21.20;99.90
2639;DHT22;1329;51.384;7.122;2022-09-09T14:29:42;21.30;99.90
2639;DHT22;1329;51.384;7.122;2022-09-09T14:32:34;21.20;99.90
2639;DHT22;1329;51.384;7.122;2022-09-09T14:35:09;21.30;99.90
2639;DHT22;1329;51.384;7.122;2022-09-09T14:38:07;21.30;99.90
2639;DHT22;1329;51.384;7.122;2022-09-09T14:40:53;21.30;99.90
2639;DHT22;1329;51.384;7.122;2022-09-09T14:43:32;21.30;99.90
2639;DHT22;1329;51.384;7.122;2022-09-09T14:46:10;21.20;99.90
2639;DHT22;1329;51.384;7.122;2022-09-09T14:49:07;21.20;99.90
2639;DHT22;1329;51.384;7.122;2022-09-09T14:54:40;21.20;99.90
2639;DHT22;1329;51.384;7.122;2022-09-09T14:57:35;21.30;99.90
2639;DHT22;1329;51.384;7.122;2022-09-09T15:00:19;21.30;99.90
2639;DHT22;1329;51.384;7.122;2022-09-09T15:03:41;21.30;99.90
2639;DHT22;1329;51.384;7.122;2022-09-09T15:06:43;21.30;99.90
2639;DHT22;1329;51.384;7.122;2022-09-09T15:09:24;21.20;99.90
2639;DHT22;1329;51.384;7.122;2022-09-09T15:12:02;21.20;99.90
2639;DHT22;1329;51.384;7.122;2022-09-09T15:14:43;21.10;99.90
2639;DHT22;1329;51.384;7.122;2022-09-09T15:17:18;20.90;99.90
2639;DHT22;1329;51.384;7.122;2022-09-09T15:19:54;20.70;99.90
2639;DHT22;1329;51.384;7.122;2022-09-09T15:22:30;20.60;99.90
2639;DHT22;1329;51.384;7.122;2022-09-09T15:25:05;20.40;99.90
2639;DHT22;1329;51.384;7.122;2022-09-09T15:27:38;20.20;99.90
2639;DHT22;1329;51.384;7.122;2022-09-09T15:30:08;20.00;99.90
2639;DHT22;1329;51.384;7.122;2022-09-09T15:32:37;19.80;99.90
2639;DHT22;1329;51.384;7.122;2022-09-09T15:35:07;19.60;99.90
2639;DHT22;1329;51.384;7.122;2022-09-09T15:37:37;19.50;99.90
2639;DHT22;1329;51.384;7.122;2022-09-09T15:40:11;19.40;99.90
2639;DHT22;1329;51.384;7.122;2022-09-09T15:42:41;19.20;99.90
2639;DHT22;1329;51.384;7.122;2022-09-09T15:45:12;19.10;99.90
2639;DHT22;1329;51.384;7.122;2022-09-09T15:47:41;19.00;99.90
2639;DHT22;1329;51.384;7.122;2022-09-09T15:50:16;18.90;99.90
2639;DHT22;1329;51.384;7.122;2022-09-09T15:52:46;18.80;99.90
2639;DHT22;1329;51.384;7.122;2022-09-09T15:55:18;18.70;99.90
2639;DHT22;1329;51.384;7.122;2022-09-09T15:57:47;18.70;99.90
2639;DHT22;1329;51.384;7.122;2022-09-09T16:00:15;18.70;99.90
2639;DHT22;1329;51.384;7.122;2022-09-09T16:02:43;18.60;99.90
2639;DHT22;1329;51.384;7.122;2022-09-09T16:05:16;18.60;99.90
2639;DHT22;1329;51.384;7.122;2022-09-09T16:07:44;18.70;99.90
2639;DHT22;1329;51.384;7.122;2022-09-09T16:10:13;18.60;99.90
2639;DHT22;1329;51.384;7.122;2022-09-09T16:12:41;18.60;99.90
2639;DHT22;1329;51.384;7.122;2022-09-09T16:15:08;18.60;99.90
2639;DHT22;1329;51.384;7.122;2022-09-09T16:17:37;18.60;99.90
2639;DHT22;1329;51.384;7.122;2022-09-09T16:20:05;18.70;99.90
2639;DHT22;1329;51.384;7.122;2022-09-09T16:22:35;18.70;99.90
2639;DHT22;1329;51.384;7.122;2022-09-09T16:25:03;18.70;99.90
2639;DHT22;1329;51.384;7.122;2022-09-09T16:27:32;18.70;99.90
2639;DHT22;1329;51.384;7.122;2022-09-09T16:29:59;18.70;99.90
2639;DHT22;1329;51.384;7.122;2022-09-09T16:32:28;18.70;99.90
2639;DHT22;1329;51.384;7.122;2022-09-09T16:34:56;18.70;99.90
2639;DHT22;1329;51.384;7.122;2022-09-09T16:37:24;18.70;99.90
2639;DHT22;1329;51.384;7.122;2022-09-09T16:39:53;18.70;99.90
2639;DHT22;1329;51.384;7.122;2022-09-09T16:42:22;18.70;99.90
2639;DHT22;1329;51.384;7.122;2022-09-09T16:44:49;18.70;99.90
2639;DHT22;1329;51.384;7.122;2022-09-09T16:47:17;18.60;99.90
2639;DHT22;1329;51.384;7.122;2022-09-09T16:49:45;18.60;99.90
2639;DHT22;1329;51.384;7.122;2022-09-09T16:52:15;18.70;99.90
2639;DHT22;1329;51.384;7.122;2022-09-09T16:54:44;18.70;99.90